createdAt,value
2018-05-24T00:01:20.931Z,4.10
2018-05-24T00:03:49.076Z,4.10
2018-05-24T00:06:17.179Z,4.07
2018-05-24T00:08:45.204Z,3.90
2018-05-24T00:11:13.262Z,4.50
2018-05-24T00:13:42.107Z,4.23
2018-05-24T00:16:10.187Z,4.43
2018-05-24T00:18:39.117Z,4.40
2018-05-24T00:21:08.014Z,4.43
2018-05-24T00:23:36.871Z,4.40
2018-05-24T00:26:04.876Z,4.50
2018-05-24T00:28:33.624Z,4.70
2018-05-24T00:31:01.701Z,4.47
2018-05-24T00:33:29.756Z,4.50
2018-05-24T00:35:57.885Z,4.10
2018-05-24T00:38:25.914Z,4.90
2018-05-24T00:40:54.019Z,5.00
2018-05-24T00:43:22.843Z,4.77
2018-05-24T00:45:50.931Z,4.27
2018-05-24T00:48:19.700Z,4.33
2018-05-24T00:50:47.793Z,4.53
2018-05-24T00:53:15.947Z,4.00
2018-05-24T00:55:44.785Z,4.30
2018-05-24T00:58:12.910Z,4.40
2018-05-24T01:00:41.117Z,4.80
2018-05-24T01:03:09.262Z,4.53
2018-05-24T01:05:37.305Z,4.47
2018-05-24T01:08:06.000Z,4.07
2018-05-24T01:10:34.000Z,4.50
2018-05-24T01:13:02.043Z,4.30
2018-05-24T01:15:30.179Z,4.40
2018-05-24T01:17:58.216Z,4.73
2018-05-24T01:20:26.294Z,4.50
2018-05-24T01:22:54.351Z,4.27
2018-05-24T01:25:22.426Z,4.53
2018-05-24T01:27:50.462Z,4.20
2018-05-24T01:30:19.360Z,4.43
2018-05-24T01:32:47.406Z,4.50
2018-05-24T01:35:16.250Z,4.30
2018-05-24T01:37:50.795Z,4.20
2018-05-24T01:40:18.890Z,5.13
2018-05-24T01:42:47.713Z,4.37
2018-05-24T01:45:16.720Z,4.53
2018-05-24T01:47:44.813Z,4.60
2018-05-24T01:50:12.923Z,4.97
2018-05-24T01:52:41.760Z,4.23
2018-05-24T01:55:09.867Z,4.00
2018-05-24T01:57:37.859Z,4.47
2018-05-24T02:00:06.713Z,4.60
2018-05-24T02:02:34.719Z,4.57
2018-05-24T02:05:03.600Z,4.20
2018-05-24T02:07:31.635Z,4.60
2018-05-24T02:09:59.734Z,4.30
2018-05-24T02:12:27.780Z,4.57
2018-05-24T02:14:55.859Z,4.63
2018-05-24T02:17:23.902Z,4.07
2018-05-24T02:19:52.022Z,5.00
2018-05-24T02:22:20.140Z,5.93
2018-05-24T02:24:48.195Z,5.10
2018-05-24T02:27:17.092Z,4.50
2018-05-24T02:29:45.987Z,4.60
2018-05-24T02:32:14.046Z,5.00
2018-05-24T02:34:42.907Z,4.70
2018-05-24T02:37:11.000Z,4.63
2018-05-24T02:39:39.842Z,5.47
2018-05-24T02:42:07.934Z,4.73
2018-05-24T02:44:36.015Z,4.70
2018-05-24T02:47:04.075Z,5.17
2018-05-24T02:49:32.096Z,5.00
2018-05-24T02:52:01.009Z,5.40
2018-05-24T02:54:29.092Z,5.07
2018-05-24T02:56:57.134Z,4.23
2018-05-24T02:59:25.170Z,4.30
2018-05-24T03:01:53.213Z,4.17
2018-05-24T03:04:21.237Z,4.30
2018-05-24T03:06:50.017Z,5.00
2018-05-24T03:09:18.811Z,4.43
2018-05-24T03:11:47.679Z,4.33
2018-05-24T03:14:15.811Z,5.17
2018-05-24T03:16:43.873Z,4.17
2018-05-24T03:19:11.948Z,3.80
2018-05-24T03:21:40.223Z,4.60
2018-05-24T03:24:08.243Z,4.63
2018-05-24T03:26:36.282Z,4.43
2018-05-24T03:29:05.092Z,4.87
2018-05-24T03:31:33.126Z,4.70
2018-05-24T03:34:01.342Z,4.43
2018-05-24T03:36:29.413Z,5.10
2018-05-24T03:38:57.504Z,5.37
2018-05-24T03:41:25.553Z,5.47
2018-05-24T03:43:54.361Z,4.90
2018-05-24T03:46:23.163Z,4.50
2018-05-24T03:48:52.026Z,4.70
2018-05-24T03:51:20.086Z,4.67
2018-05-24T03:53:48.834Z,4.63
2018-05-24T03:56:17.653Z,4.27
2018-05-24T03:58:45.767Z,4.53
2018-05-24T04:01:25.606Z,4.57
2018-05-24T04:03:53.656Z,4.73
2018-05-24T04:06:21.703Z,4.40
2018-05-24T04:08:49.735Z,4.23
2018-05-24T04:11:17.858Z,4.80
2018-05-24T04:13:45.964Z,4.73
2018-05-24T04:16:14.024Z,4.37
2018-05-24T04:18:42.073Z,4.50
2018-05-24T04:21:11.232Z,4.23
2018-05-24T04:23:40.043Z,4.37
2018-05-24T04:26:08.144Z,4.47
2018-05-24T04:28:36.257Z,4.03
2018-05-24T04:31:04.440Z,4.53
2018-05-24T04:33:33.362Z,4.40
2018-05-24T04:36:01.454Z,4.40
2018-05-24T04:38:29.621Z,4.73
2018-05-24T04:40:57.889Z,5.13
2018-05-24T04:43:25.962Z,4.80
2018-05-24T04:45:53.989Z,5.07
2018-05-24T04:48:22.871Z,4.50
2018-05-24T04:50:51.099Z,4.60
2018-05-24T04:53:19.739Z,5.50
2018-05-24T04:55:47.895Z,4.80
2018-05-24T04:58:18.897Z,4.60
2018-05-24T05:00:46.998Z,5.10
2018-05-24T05:03:15.146Z,5.30
2018-05-24T05:05:43.218Z,4.57
2018-05-24T05:08:11.361Z,4.37
2018-05-24T05:10:49.666Z,4.37
2018-05-24T05:13:18.483Z,4.67
2018-05-24T05:15:46.682Z,4.77
2018-05-24T05:18:14.743Z,4.90
2018-05-24T05:20:42.856Z,5.00
2018-05-24T05:23:11.282Z,5.53
2018-05-24T05:25:40.082Z,4.60
2018-05-24T05:28:08.124Z,5.13
2018-05-24T05:30:37.015Z,5.23
2018-05-24T05:33:05.139Z,5.03
2018-05-24T05:35:33.131Z,5.00
2018-05-24T05:38:01.392Z,5.00
2018-05-24T05:40:29.477Z,4.57
2018-05-24T05:42:57.849Z,4.63
2018-05-24T05:45:25.969Z,4.20
2018-05-24T05:47:54.834Z,4.43
2018-05-24T05:50:23.008Z,4.40
2018-05-24T05:52:51.207Z,4.33
2018-05-24T05:55:20.058Z,3.60
2018-05-24T05:57:48.069Z,4.00
2018-05-24T06:00:16.092Z,4.10
2018-05-24T06:02:44.267Z,4.40
2018-05-24T06:05:12.467Z,3.60
2018-05-24T06:07:40.701Z,3.60
2018-05-24T06:10:08.854Z,3.83
2018-05-24T06:12:37.027Z,4.10
2018-05-24T06:15:05.247Z,3.83
2018-05-24T06:17:33.410Z,3.63
2018-05-24T06:20:01.631Z,3.43
2018-05-24T06:22:30.477Z,4.03
2018-05-24T06:24:59.788Z,3.97
2018-05-24T06:27:27.928Z,3.40
2018-05-24T06:30:22.022Z,3.87
2018-05-24T06:33:02.664Z,3.97
2018-05-24T06:35:30.804Z,5.40
2018-05-24T06:37:58.986Z,3.40
2018-05-24T06:40:27.973Z,4.00
2018-05-24T06:42:56.117Z,4.10
2018-05-24T06:45:24.351Z,3.63
2018-05-24T06:47:52.505Z,3.43
2018-05-24T06:50:21.654Z,3.27
2018-05-24T06:56:16.749Z,3.10
2018-05-24T06:58:47.947Z,3.03
2018-05-24T07:01:17.561Z,3.37
2018-05-24T07:03:47.917Z,3.17
2018-05-24T07:06:19.378Z,3.43
2018-05-24T07:08:50.194Z,3.60
2018-05-24T07:11:20.593Z,3.53
2018-05-24T07:13:53.017Z,3.43
2018-05-24T07:16:21.404Z,3.37
2018-05-24T07:18:49.537Z,3.23
2018-05-24T07:21:17.683Z,2.93
2018-05-24T07:23:45.826Z,2.83
2018-05-24T07:26:13.905Z,3.20
2018-05-24T07:28:42.054Z,2.80
2018-05-24T07:31:10.878Z,3.47
2018-05-24T07:33:38.959Z,3.03
2018-05-24T07:36:07.452Z,3.30
2018-05-24T07:38:35.677Z,2.83
2018-05-24T07:41:03.824Z,2.90
2018-05-24T07:43:31.914Z,2.70
2018-05-24T07:46:00.780Z,2.90
2018-05-24T07:48:28.905Z,3.10
2018-05-24T07:50:57.041Z,2.70
2018-05-24T07:53:25.851Z,2.80
2018-05-24T07:55:53.979Z,2.93
2018-05-24T07:58:22.100Z,2.90
2018-05-24T08:00:50.393Z,3.20
2018-05-24T08:03:18.710Z,3.90
2018-05-24T08:05:46.891Z,3.70
2018-05-24T08:08:17.798Z,2.93
2018-05-24T08:10:45.872Z,3.60
2018-05-24T08:13:13.962Z,2.90
2018-05-24T08:15:42.123Z,3.07
2018-05-24T08:18:10.223Z,3.35
2018-05-24T08:20:38.719Z,3.07
2018-05-24T08:23:07.542Z,3.47
2018-05-24T08:25:35.762Z,3.20
2018-05-24T08:28:03.955Z,3.30
2018-05-24T08:30:33.843Z,3.43
2018-05-24T08:33:01.927Z,3.30
2018-05-24T08:35:30.016Z,3.37
2018-05-24T08:37:58.879Z,3.87
2018-05-24T08:40:27.035Z,3.50
2018-05-24T08:42:55.476Z,3.30
2018-05-24T08:45:24.335Z,2.70
2018-05-24T08:47:52.518Z,2.30
2018-05-24T08:50:20.732Z,2.95
2018-05-24T08:52:48.798Z,2.80
2018-05-24T08:55:16.899Z,2.83
2018-05-24T08:57:44.950Z,3.10
2018-05-24T09:00:13.020Z,2.80
2018-05-24T09:02:41.075Z,2.70
2018-05-24T09:05:09.905Z,2.90
2018-05-24T09:07:37.967Z,2.83
2018-05-24T09:10:06.059Z,3.07
2018-05-24T09:12:35.233Z,2.80
2018-05-24T09:15:03.378Z,2.63
2018-05-24T09:17:32.278Z,3.40
2018-05-24T09:20:00.434Z,2.90
2018-05-24T09:22:29.347Z,2.93
2018-05-24T09:24:57.404Z,3.07
2018-05-24T09:27:26.364Z,3.30
2018-05-24T09:29:54.457Z,3.07
2018-05-24T09:32:22.638Z,2.83
2018-05-24T09:34:51.519Z,3.37
2018-05-24T09:37:19.656Z,3.77
2018-05-24T09:39:47.670Z,3.97
2018-05-24T09:42:15.873Z,3.60
2018-05-24T09:44:44.058Z,3.20
2018-05-24T09:47:12.129Z,3.40
2018-05-24T09:49:40.234Z,4.27
2018-05-24T09:52:08.468Z,3.73
2018-05-24T09:54:36.639Z,4.47
2018-05-24T09:57:04.805Z,4.30
2018-05-24T09:59:33.643Z,3.93
2018-05-24T10:02:01.773Z,3.73
2018-05-24T10:04:30.777Z,4.37
2018-05-24T10:06:58.822Z,4.30
2018-05-24T10:09:27.585Z,4.27
2018-05-24T10:11:55.668Z,4.63
2018-05-24T10:14:23.711Z,4.73
2018-05-24T10:16:51.800Z,4.10
2018-05-24T10:19:19.968Z,4.57
2018-05-24T10:21:48.029Z,4.13
2018-05-24T10:24:16.059Z,4.00
2018-05-24T10:26:44.118Z,4.50
2018-05-24T10:29:12.895Z,3.90
2018-05-24T10:31:40.949Z,4.20
2018-05-24T10:34:09.024Z,4.60
2018-05-24T10:36:37.044Z,4.87
2018-05-24T10:39:06.032Z,4.03
2018-05-24T10:41:34.085Z,4.30
2018-05-24T10:44:03.063Z,3.83
2018-05-24T10:46:31.092Z,3.90
2018-05-24T10:48:59.118Z,3.40
2018-05-24T10:51:28.029Z,3.40
2018-05-24T10:53:56.038Z,3.70
2018-05-24T10:56:24.098Z,3.70
2018-05-24T10:58:52.158Z,4.37
2018-05-24T11:01:20.393Z,5.07
2018-05-24T11:03:48.535Z,5.23
2018-05-24T11:06:16.685Z,4.60
2018-05-24T11:08:44.746Z,5.47
2018-05-24T11:11:12.897Z,5.00
2018-05-24T11:13:41.689Z,4.90
2018-05-24T11:16:10.584Z,5.07
2018-05-24T11:18:39.359Z,5.50
2018-05-24T11:21:08.166Z,5.10
2018-05-24T11:23:36.937Z,5.63
2018-05-24T11:26:05.713Z,5.10
2018-05-24T11:28:33.813Z,6.13
2018-05-24T11:31:05.581Z,5.50
2018-05-24T11:33:33.578Z,5.50
2018-05-24T11:36:01.805Z,5.50
2018-05-24T11:38:30.647Z,5.10
2018-05-24T11:40:58.709Z,5.57
2018-05-24T11:43:26.973Z,5.30
2018-05-24T11:45:54.929Z,5.53
2018-05-24T11:48:23.762Z,5.80
2018-05-24T11:50:51.845Z,5.20
2018-05-24T11:53:19.955Z,5.77
2018-05-24T11:55:48.740Z,5.40
2018-05-24T11:58:17.584Z,5.57
2018-05-24T12:00:45.724Z,6.10
2018-05-24T12:03:13.820Z,6.50
2018-05-24T12:05:41.942Z,5.60
2018-05-24T12:08:10.058Z,6.07
2018-05-24T12:10:38.347Z,5.80
2018-05-24T12:13:06.381Z,5.65
2018-05-24T12:15:35.240Z,5.90
2018-05-24T12:18:03.593Z,5.73
2018-05-24T12:20:31.637Z,6.37
2018-05-24T12:23:00.227Z,6.35
2018-05-24T12:25:28.368Z,5.40
2018-05-24T12:27:57.452Z,5.67
2018-05-24T12:30:25.661Z,6.20
2018-05-24T12:32:54.734Z,5.75
2018-05-24T12:35:24.299Z,5.97
2018-05-24T12:37:52.461Z,6.32
2018-05-24T12:40:20.827Z,6.32
2018-05-24T12:42:49.119Z,6.45
2018-05-24T12:45:17.382Z,6.50
2018-05-24T12:47:45.877Z,6.05
2018-05-24T12:50:15.117Z,6.40
2018-05-24T12:52:43.225Z,6.30
2018-05-24T12:55:11.530Z,6.17
2018-05-24T12:57:40.252Z,5.93
2018-05-24T13:00:09.127Z,6.57
2018-05-24T13:02:37.208Z,6.30
2018-05-24T13:05:05.284Z,6.23
2018-05-24T13:07:33.416Z,6.37
2018-05-24T13:10:01.496Z,6.13
2018-05-24T13:12:29.581Z,6.40
2018-05-24T13:14:57.795Z,6.27
2018-05-24T13:17:28.642Z,6.33
2018-05-24T13:19:57.482Z,6.07
2018-05-24T13:22:25.646Z,6.67
2018-05-24T13:24:53.757Z,6.90
2018-05-24T13:27:21.912Z,6.07
2018-05-24T13:29:50.101Z,6.50
2018-05-24T13:32:18.230Z,6.80
2018-05-24T13:34:46.268Z,6.87
2018-05-24T13:37:15.118Z,7.10
2018-05-24T13:39:43.295Z,6.70
2018-05-24T13:42:11.488Z,6.90
2018-05-24T13:44:39.648Z,7.40
2018-05-24T13:47:07.789Z,6.97
2018-05-24T13:49:35.966Z,7.20
2018-05-24T13:52:04.080Z,7.93
2018-05-24T13:54:32.239Z,6.97
2018-05-24T13:57:00.340Z,6.70
2018-05-24T13:59:29.170Z,6.93
2018-05-24T14:01:57.308Z,6.75
2018-05-24T14:04:26.083Z,6.47
2018-05-24T14:06:54.129Z,6.53
2018-05-24T14:09:22.188Z,6.93
2018-05-24T14:11:50.314Z,6.93
2018-05-24T14:14:19.261Z,6.53
2018-05-24T14:16:47.430Z,7.70
2018-05-24T14:19:15.495Z,7.93
2018-05-24T14:21:43.572Z,7.67
2018-05-24T14:24:11.648Z,9.27
2018-05-24T14:26:39.692Z,11.27
2018-05-24T14:29:07.894Z,11.43
2018-05-24T14:31:35.989Z,13.60
2018-05-24T14:34:04.110Z,11.27
2018-05-24T14:36:32.183Z,12.40
2018-05-24T14:39:00.230Z,14.43
2018-05-24T14:41:29.387Z,13.40
2018-05-24T14:43:57.507Z,14.07
2018-05-24T14:46:26.403Z,14.17
2018-05-24T14:48:55.226Z,13.10
2018-05-24T14:51:23.380Z,13.30
2018-05-24T14:53:51.489Z,12.70
2018-05-24T14:56:19.570Z,11.57
2018-05-24T14:58:47.612Z,9.40
2018-05-24T15:01:15.647Z,8.27
2018-05-24T15:03:44.531Z,7.90
2018-05-24T15:06:13.450Z,4.60
2018-05-24T15:08:41.546Z,3.80
2018-05-24T15:11:10.415Z,3.30
2018-05-24T15:13:50.336Z,4.10
2018-05-24T15:16:18.389Z,4.33
2018-05-24T15:18:46.676Z,4.43
2018-05-24T15:21:14.745Z,3.57
2018-05-24T15:23:42.817Z,4.60
2018-05-24T15:26:10.881Z,5.20
2018-05-24T15:28:38.905Z,4.70
2018-05-24T15:31:06.999Z,6.67
2018-05-24T15:33:35.065Z,6.00
2018-05-24T15:36:03.173Z,5.77
2018-05-24T15:38:31.196Z,5.70
2018-05-24T15:40:59.301Z,4.90
2018-05-24T15:43:27.403Z,5.00
2018-05-24T15:45:56.184Z,4.60
2018-05-24T15:48:24.220Z,4.60
2018-05-24T15:50:52.285Z,5.10
2018-05-24T15:53:20.357Z,4.90
2018-05-24T15:55:49.042Z,4.60
2018-05-24T15:58:17.189Z,4.70
2018-05-24T16:00:45.344Z,4.53
2018-05-24T16:03:14.209Z,5.10
2018-05-24T16:05:42.272Z,4.97
2018-05-24T16:08:10.388Z,5.17
2018-05-24T16:10:39.284Z,4.57
2018-05-24T16:13:08.198Z,5.03
2018-05-24T16:15:36.254Z,5.60
2018-05-24T16:18:04.313Z,5.93
2018-05-24T16:20:33.133Z,5.40
2018-05-24T16:23:01.215Z,5.50
2018-05-24T16:25:29.349Z,6.07
2018-05-24T16:27:57.479Z,5.50
2018-05-24T16:30:25.572Z,6.07
2018-05-24T16:32:53.591Z,6.50
2018-05-24T16:35:21.748Z,6.13
2018-05-24T16:37:50.622Z,5.57
2018-05-24T16:40:20.384Z,4.87
2018-05-24T16:42:48.441Z,4.93
2018-05-24T16:45:16.531Z,5.07
2018-05-24T16:47:44.569Z,6.27
2018-05-24T16:50:13.381Z,9.27
2018-05-24T16:52:42.228Z,9.20
2018-05-24T16:55:11.059Z,9.77
2018-05-24T16:57:39.194Z,9.57
2018-05-24T17:00:08.015Z,9.50
2018-05-24T17:02:36.124Z,9.03
2018-05-24T17:05:04.292Z,9.40
2018-05-24T17:07:32.514Z,9.40
2018-05-24T17:10:01.400Z,9.00
2018-05-24T17:12:30.222Z,8.90
2018-05-24T17:14:59.157Z,7.57
2018-05-24T17:17:27.200Z,8.27
2018-05-24T17:19:55.263Z,8.93
2018-05-24T17:22:23.316Z,7.63
2018-05-24T17:24:51.369Z,7.37
2018-05-24T17:27:20.173Z,7.30
2018-05-24T17:29:48.871Z,7.33
2018-05-24T17:32:16.977Z,6.70
2018-05-24T17:34:45.019Z,6.70
2018-05-24T17:37:13.157Z,7.33
2018-05-24T17:39:41.971Z,7.57
2018-05-24T17:42:10.106Z,7.20
2018-05-24T17:44:38.190Z,7.43
2018-05-24T17:47:06.212Z,8.37
2018-05-24T17:49:34.324Z,7.33
2018-05-24T17:52:02.484Z,7.67
2018-05-24T17:54:30.515Z,7.67
2018-05-24T17:56:58.610Z,10.50
2018-05-24T17:59:26.730Z,12.30
2018-05-24T18:01:55.627Z,11.83
2018-05-24T18:04:24.518Z,12.07
2018-05-24T18:06:53.300Z,9.40
2018-05-24T18:09:22.146Z,8.57
2018-05-24T18:11:51.318Z,8.40
2018-05-24T18:14:19.394Z,7.90
2018-05-24T18:16:47.484Z,7.77
2018-05-24T18:19:16.010Z,7.40
2018-05-24T18:21:44.844Z,7.10
2018-05-24T18:24:12.960Z,7.40
2018-05-24T18:26:41.045Z,7.53
2018-05-24T18:29:09.072Z,7.17
2018-05-24T18:31:37.402Z,7.77
2018-05-24T18:34:06.206Z,7.20
2018-05-24T18:36:34.328Z,7.60
2018-05-24T18:39:02.392Z,7.10
2018-05-24T18:41:30.475Z,7.57
2018-05-24T18:43:58.536Z,7.20
2018-05-24T18:46:26.585Z,8.10
2018-05-24T18:48:54.664Z,7.67
2018-05-24T18:51:22.651Z,8.40
2018-05-24T18:53:50.792Z,8.43
2018-05-24T18:56:18.815Z,8.50
2018-05-24T18:58:46.879Z,8.60
2018-05-24T19:01:14.925Z,8.40
2018-05-24T19:03:42.999Z,8.73
2018-05-24T19:06:11.114Z,8.73
2018-05-24T19:08:39.282Z,9.33
2018-05-24T19:11:07.333Z,9.17
2018-05-24T19:13:35.599Z,10.47
2018-05-24T19:16:04.199Z,9.97
2018-05-24T19:18:32.246Z,10.77
2018-05-24T19:21:00.331Z,9.90
2018-05-24T19:23:28.377Z,10.23
2018-05-24T19:25:56.395Z,10.23
2018-05-24T19:28:24.498Z,10.37
2018-05-24T19:30:53.272Z,11.57
2018-05-24T19:33:21.320Z,12.13
2018-05-24T19:35:49.380Z,11.20
2018-05-24T19:38:17.583Z,10.70
2018-05-24T19:40:45.662Z,10.87
2018-05-24T19:43:13.731Z,11.47
2018-05-24T19:45:42.704Z,11.60
2018-05-24T19:48:10.797Z,12.70
2018-05-24T19:50:38.892Z,11.90
2018-05-24T19:53:07.768Z,12.37
2018-05-24T19:55:35.829Z,13.27
2018-05-24T19:58:03.924Z,14.43
2018-05-24T20:00:32.841Z,13.43
2018-05-24T20:03:01.020Z,12.93
2018-05-24T20:05:29.153Z,12.40
2018-05-24T20:07:57.256Z,12.40
2018-05-24T20:10:25.291Z,12.40
2018-05-24T20:12:53.441Z,11.67
2018-05-24T20:15:21.478Z,11.90
2018-05-24T20:17:50.338Z,12.37
2018-05-24T20:20:19.180Z,11.20
2018-05-24T20:22:47.248Z,12.33
2018-05-24T20:25:15.336Z,11.80
2018-05-24T20:27:43.404Z,11.97
2018-05-24T20:30:11.518Z,12.17
2018-05-24T20:32:40.412Z,12.47
2018-05-24T20:35:08.522Z,10.60
2018-05-24T20:37:36.586Z,10.40
2018-05-24T20:40:04.653Z,10.53
2018-05-24T20:42:32.755Z,10.30
2018-05-24T20:45:00.791Z,10.47
2018-05-24T20:47:28.822Z,9.50
2018-05-24T20:49:56.862Z,9.23
2018-05-24T20:52:24.869Z,9.90
2018-05-24T20:54:52.923Z,9.83
2018-05-24T20:57:21.009Z,10.40
2018-05-24T20:59:49.077Z,11.47
2018-05-24T21:02:17.176Z,11.30
2018-05-24T21:04:46.050Z,11.43
2018-05-24T21:07:14.132Z,11.77
2018-05-24T21:09:42.957Z,11.40
2018-05-24T21:12:11.095Z,12.27
2018-05-24T21:14:39.959Z,11.83
2018-05-24T21:17:08.039Z,12.13
2018-05-24T21:19:36.227Z,11.97
2018-05-24T21:22:05.217Z,12.03
2018-05-24T21:24:33.321Z,12.93
2018-05-24T21:27:01.387Z,13.13
2018-05-24T21:29:29.446Z,12.30
2018-05-24T21:31:58.251Z,12.40
2018-05-24T21:34:27.071Z,12.50
2018-05-24T21:36:55.116Z,11.87
2018-05-24T21:39:23.202Z,13.20
2018-05-24T21:41:51.334Z,12.50
2018-05-24T21:44:20.085Z,13.10
2018-05-24T21:46:48.188Z,13.87
2018-05-24T21:49:16.299Z,13.03
2018-05-24T21:51:44.351Z,12.73
2018-05-24T21:54:13.165Z,12.70
2018-05-24T21:56:42.191Z,12.93
2018-05-24T21:59:10.218Z,12.33
2018-05-24T22:01:38.318Z,11.90
2018-05-24T22:04:06.455Z,11.93
2018-05-24T22:06:35.259Z,10.73
2018-05-24T22:09:03.473Z,10.63
2018-05-24T22:11:31.576Z,10.57
2018-05-24T22:13:59.618Z,10.47
2018-05-24T22:16:27.672Z,9.27
2018-05-24T22:18:55.785Z,9.87
2018-05-24T22:21:23.814Z,9.13
2018-05-24T22:23:51.812Z,7.97
2018-05-24T22:26:19.849Z,8.77
2018-05-24T22:28:47.889Z,8.00
2018-05-24T22:31:16.679Z,7.67
2018-05-24T22:33:45.496Z,7.50
2018-05-24T22:36:13.582Z,7.40
2018-05-24T22:38:41.785Z,7.63
2018-05-24T22:41:10.015Z,7.77
2018-05-24T22:43:38.861Z,6.43
2018-05-24T22:46:06.859Z,7.07
2018-05-24T22:48:35.687Z,7.10
2018-05-24T22:51:03.735Z,7.00
2018-05-24T22:53:31.727Z,6.63
2018-05-24T22:55:59.800Z,6.87
2018-05-24T22:58:27.839Z,7.23
2018-05-24T23:00:55.885Z,6.60
2018-05-24T23:03:23.922Z,6.87
2018-05-24T23:05:51.936Z,6.50
2018-05-24T23:08:20.034Z,6.27
2018-05-24T23:10:48.079Z,5.90
2018-05-24T23:13:16.924Z,6.00
2018-05-24T23:15:44.975Z,6.30
2018-05-24T23:18:13.017Z,6.70
2018-05-24T23:20:41.831Z,6.80
2018-05-24T23:23:09.907Z,6.60
2018-05-24T23:25:37.949Z,6.50
2018-05-24T23:28:06.783Z,6.10
2018-05-24T23:30:34.830Z,6.90
2018-05-24T23:33:02.905Z,6.60
2018-05-24T23:35:31.000Z,6.40
2018-05-24T23:37:59.969Z,6.23
2018-05-24T23:40:28.065Z,6.37
2018-05-24T23:42:56.114Z,6.53
2018-05-24T23:45:24.136Z,6.10
2018-05-24T23:47:52.172Z,6.47
2018-05-24T23:50:20.235Z,5.67
2018-05-24T23:52:49.099Z,5.60
2018-05-24T23:55:17.941Z,6.00
2018-05-24T23:57:46.003Z,5.73
